createdAt,value
2024-04-25T00:02:30.648Z,96937.16
2024-04-25T00:05:16.463Z,96935.59
2024-04-25T00:08:22.417Z,96944.94
2024-04-25T00:11:28.345Z,96941.81
2024-04-25T00:14:34.449Z,96955.50
2024-04-25T00:17:40.408Z,96951.03
2024-04-25T00:20:46.668Z,96949.69
2024-04-25T00:23:52.586Z,96956.91
2024-04-25T00:26:58.718Z,96958.13
2024-04-25T00:30:05.244Z,96957.84
2024-04-25T00:33:11.056Z,96956.88
2024-04-25T00:36:16.771Z,96945.81
2024-04-25T00:39:22.584Z,96938.44
2024-04-25T00:42:35.748Z,96945.56
2024-04-25T00:45:42.276Z,96947.47
2024-04-25T00:48:50.143Z,96949.41
2024-04-25T00:51:57.761Z,96947.09
2024-04-25T00:55:06.108Z,96893.91
2024-04-25T00:58:13.301Z,96953.34
2024-04-25T01:01:21.786Z,96932.78
2024-04-25T01:04:28.262Z,96946.63
2024-04-25T01:07:34.910Z,96948.19
2024-04-25T01:10:41.333Z,96950.97
2024-04-25T01:13:46.981Z,96938.59
2024-04-25T01:16:52.539Z,96947.13
2024-04-25T01:19:59.182Z,96925.31
2024-04-25T01:23:07.271Z,96954.50
2024-04-25T01:26:13.348Z,96958.84
2024-04-25T01:29:20.671Z,96905.34
2024-04-25T01:32:27.309Z,96961.00
2024-04-25T01:35:33.668Z,96968.56
2024-04-25T01:38:39.975Z,96967.19
2024-04-25T01:41:46.030Z,96958.91
2024-04-25T01:44:52.097Z,96967.69
2024-04-25T01:47:57.772Z,96955.16
2024-04-25T01:51:04.532Z,96961.41
2024-04-25T01:54:11.608Z,96841.59
2024-04-25T01:57:18.347Z,96977.28
2024-04-25T02:00:25.107Z,96983.06
2024-04-25T02:03:30.962Z,96963.31
2024-04-25T02:06:37.015Z,96963.81
2024-04-25T02:09:23.195Z,96970.06
2024-04-25T02:12:34.397Z,96980.38
2024-04-25T02:15:20.119Z,96982.28
2024-04-25T02:18:06.496Z,97007.28
2024-04-25T02:21:11.472Z,96988.28
2024-04-25T02:24:16.533Z,96993.22
2024-04-25T02:27:02.963Z,96997.28
2024-04-25T02:29:48.803Z,96995.59
2024-04-25T02:32:35.136Z,97001.22
2024-04-25T02:35:21.013Z,97001.69
2024-04-25T02:38:09.272Z,97006.50
2024-04-25T02:40:55.023Z,97011.53
2024-04-25T02:43:41.246Z,97008.19
2024-04-25T02:46:30.123Z,97009.50
2024-04-25T02:49:15.902Z,97023.00
2024-04-25T02:52:01.727Z,97020.22
2024-04-25T02:54:48.644Z,97029.63
2024-04-25T02:57:34.896Z,97004.13
2024-04-25T03:00:21.036Z,97021.63
2024-04-25T03:03:07.533Z,97025.97
2024-04-25T03:05:54.634Z,97034.97
2024-04-25T03:08:40.902Z,97023.19
2024-04-25T03:11:26.718Z,97033.84
2024-04-25T03:14:14.182Z,97034.91
2024-04-25T03:17:00.848Z,97026.22
2024-04-25T03:19:47.304Z,97025.75
2024-04-25T03:22:33.495Z,97044.50
2024-04-25T03:25:20.445Z,97036.09
2024-04-25T03:28:08.763Z,96913.84
2024-04-25T03:30:56.890Z,97044.50
2024-04-25T03:33:42.986Z,97039.13
2024-04-25T03:36:29.234Z,97037.34
2024-04-25T03:39:21.301Z,97044.00
2024-04-25T03:42:07.877Z,97047.28
2024-04-25T03:44:53.936Z,97053.06
2024-04-25T03:47:40.701Z,97047.00
2024-04-25T03:50:26.721Z,97054.47
2024-04-25T03:53:14.437Z,97059.13
2024-04-25T03:56:00.825Z,97055.19
2024-04-25T03:58:47.096Z,97063.47
2024-04-25T04:01:33.083Z,97064.13
2024-04-25T04:04:19.363Z,97049.44
2024-04-25T04:07:05.471Z,97052.97
2024-04-25T04:09:50.995Z,97062.97
2024-04-25T04:12:36.951Z,97088.97
2024-04-25T04:15:23.094Z,97011.34
2024-04-25T04:18:09.212Z,97046.22
2024-04-25T04:20:55.151Z,97061.31
2024-04-25T04:23:41.452Z,97085.66
2024-04-25T04:26:27.341Z,97083.16
2024-04-25T04:29:33.080Z,97071.06
2024-04-25T04:32:39.110Z,97084.06
2024-04-25T04:35:44.812Z,97087.06
2024-04-25T04:38:50.466Z,97106.72
2024-04-25T04:41:57.234Z,97079.53
2024-04-25T04:45:03.242Z,97080.03
2024-04-25T04:48:15.869Z,97081.00
2024-04-25T04:51:25.848Z,97102.00
2024-04-25T04:54:31.638Z,97103.94
2024-04-25T04:57:37.788Z,97110.09
2024-04-25T05:00:43.727Z,97102.56
2024-04-25T05:03:51.931Z,97107.63
2024-04-25T05:06:57.889Z,97104.00
2024-04-25T05:10:03.663Z,97104.72
2024-04-25T05:13:10.031Z,97109.25
2024-04-25T05:16:16.163Z,97119.38
2024-04-25T05:19:22.248Z,97111.63
2024-04-25T05:22:28.765Z,97098.63
2024-04-25T05:25:34.599Z,97122.63
2024-04-25T05:28:40.749Z,97131.91
2024-04-25T05:31:46.876Z,97144.69
2024-04-25T05:34:52.870Z,97133.19
2024-04-25T05:37:59.121Z,97135.13
2024-04-25T05:41:05.111Z,97140.38
2024-04-25T05:44:11.296Z,97142.06
2024-04-25T05:47:17.297Z,97132.00
2024-04-25T05:50:23.633Z,97135.69
2024-04-25T05:53:29.556Z,97143.72
2024-04-25T05:56:35.402Z,97141.66
2024-04-25T05:59:41.668Z,97154.03
2024-04-25T06:02:47.186Z,97156.31
2024-04-25T06:05:53.581Z,97159.69
2024-04-25T06:08:59.436Z,97102.22
2024-04-25T06:12:05.449Z,97171.44
2024-04-25T06:14:51.082Z,97166.53
2024-04-25T06:17:40.599Z,97170.84
2024-04-25T06:20:27.322Z,97174.56
2024-04-25T06:23:13.500Z,97177.34
2024-04-25T06:25:59.527Z,97182.56
2024-04-25T06:28:45.710Z,97193.41
2024-04-25T06:31:31.879Z,97194.84
2024-04-25T06:34:17.604Z,97205.69
2024-04-25T06:37:06.266Z,97207.44
2024-04-25T06:39:52.346Z,97203.31
2024-04-25T06:42:38.285Z,97214.75
2024-04-25T06:45:24.249Z,97213.41
2024-04-25T06:48:11.757Z,97214.13
2024-04-25T06:51:17.374Z,97211.84
2024-04-25T06:54:27.184Z,97221.72
2024-04-25T06:57:34.190Z,97218.22
2024-04-25T07:00:41.762Z,97218.19
2024-04-25T07:03:47.656Z,97237.47
2024-04-25T07:06:54.365Z,97231.47
2024-04-25T07:10:00.289Z,97259.88
2024-04-25T07:13:06.155Z,97246.91
2024-04-25T07:16:11.591Z,97247.78
2024-04-25T07:19:17.725Z,97251.72
2024-04-25T07:22:23.614Z,97241.66
2024-04-25T07:25:29.591Z,97249.19
2024-04-25T07:28:35.381Z,97242.66
2024-04-25T07:31:41.639Z,97242.06
2024-04-25T07:34:47.720Z,97246.41
2024-04-25T07:37:54.755Z,97252.78
2024-04-25T07:41:01.009Z,97256.38
2024-04-25T07:44:07.093Z,97257.63
2024-04-25T07:47:13.523Z,97258.50
2024-04-25T07:50:19.744Z,97263.75
2024-04-25T07:53:25.397Z,97288.81
2024-04-25T07:56:31.407Z,97265.63
2024-04-25T07:59:17.257Z,97275.28
2024-04-25T08:02:23.498Z,97270.19
2024-04-25T08:05:29.732Z,97274.16
2024-04-25T08:08:35.272Z,97278.38
2024-04-25T08:11:41.281Z,97285.56
2024-04-25T08:14:47.250Z,97284.94
2024-04-25T08:17:53.546Z,97286.59
2024-04-25T08:20:59.483Z,97284.03
2024-04-25T08:24:05.536Z,97283.94
2024-04-25T08:27:11.346Z,97292.88
2024-04-25T08:30:17.187Z,97307.41
2024-04-25T08:33:23.425Z,97292.47
2024-04-25T08:36:29.353Z,97297.09
2024-04-25T08:39:35.193Z,97296.78
2024-04-25T08:42:41.223Z,97292.84
2024-04-25T08:45:48.174Z,97298.91
2024-04-25T08:48:54.605Z,97295.31
2024-04-25T08:52:02.358Z,97287.03
2024-04-25T08:55:09.851Z,97282.00
2024-04-25T08:58:18.697Z,97289.00
2024-04-25T09:01:25.013Z,97285.81
2024-04-25T09:04:33.189Z,97287.50
2024-04-25T09:07:39.121Z,97283.66
2024-04-25T09:10:44.855Z,97289.06
2024-04-25T09:13:50.664Z,97284.91
2024-04-25T09:17:00.363Z,97306.97
2024-04-25T09:20:06.389Z,97309.97
2024-04-25T09:23:12.792Z,97302.47
2024-04-25T09:26:18.605Z,97325.16
2024-04-25T09:29:24.628Z,97325.38
2024-04-25T09:32:36.903Z,97322.59
2024-04-25T09:35:42.872Z,97331.38
2024-04-25T09:38:48.696Z,97337.94
2024-04-25T09:41:54.442Z,97345.16
2024-04-25T09:45:01.272Z,97347.03
2024-04-25T09:48:13.844Z,97348.91
2024-04-25T09:51:34.395Z,97351.16
2024-04-25T09:54:53.199Z,97282.78
2024-04-25T09:58:05.823Z,97354.03
2024-04-25T10:01:12.435Z,97357.66
2024-04-25T10:04:19.997Z,97361.25
2024-04-25T10:07:25.900Z,97370.00
2024-04-25T10:10:32.195Z,97368.66
2024-04-25T10:13:38.243Z,97356.59
2024-04-25T10:16:44.140Z,97355.38
2024-04-25T10:20:02.502Z,97373.09
2024-04-25T10:23:19.199Z,97371.19
2024-04-25T10:26:25.234Z,97364.34
2024-04-25T10:29:31.043Z,97367.41
2024-04-25T10:32:37.030Z,97360.16
2024-04-25T10:35:42.979Z,97374.06
2024-04-25T10:38:55.614Z,97392.16
2024-04-25T10:42:04.642Z,97382.06
2024-04-25T10:45:15.403Z,97397.06
2024-04-25T10:48:21.457Z,97370.28
2024-04-25T10:51:27.473Z,97366.66
2024-04-25T10:54:34.882Z,97369.25
2024-04-25T10:57:40.991Z,97364.75
2024-04-25T11:00:50.172Z,97354.69
2024-04-25T11:03:56.116Z,97357.91
2024-04-25T11:06:42.691Z,97367.72
2024-04-25T11:09:28.488Z,97368.94
2024-04-25T11:12:15.000Z,97307.66
2024-04-25T11:15:00.933Z,97372.16
2024-04-25T11:17:56.699Z,97375.94
2024-04-25T11:20:50.447Z,97374.25
2024-04-25T11:23:56.233Z,97382.38
2024-04-25T11:27:02.830Z,97384.56
2024-04-25T11:30:09.558Z,97389.84
2024-04-25T11:33:15.656Z,97392.47
2024-04-25T11:36:21.995Z,97378.50
2024-04-25T11:39:37.404Z,97368.13
2024-04-25T11:42:45.404Z,97381.16
2024-04-25T11:45:51.891Z,97378.94
2024-04-25T11:49:16.001Z,97386.28
2024-04-25T11:52:22.368Z,97388.53
2024-04-25T11:55:28.146Z,97391.16
2024-04-25T11:58:34.014Z,97388.56
2024-04-25T12:01:40.122Z,97381.16
2024-04-25T12:04:45.684Z,97381.38
2024-04-25T12:07:51.453Z,97374.56
2024-04-25T12:10:57.377Z,97370.03
2024-04-25T12:14:03.501Z,97373.25
2024-04-25T12:17:09.573Z,97331.66
2024-04-25T12:20:16.314Z,97349.00
2024-04-25T12:23:24.910Z,97348.78
2024-04-25T12:26:32.436Z,97346.41
2024-04-25T12:29:38.169Z,97351.06
2024-04-25T12:32:44.483Z,97354.47
2024-04-25T12:35:50.499Z,97351.38
2024-04-25T12:38:56.788Z,97346.81
2024-04-25T12:42:02.220Z,97344.44
2024-04-25T12:45:08.400Z,97349.09
2024-04-25T12:48:14.331Z,97354.31
2024-04-25T12:51:20.266Z,97354.00
2024-04-25T12:54:25.914Z,97354.06
2024-04-25T12:57:34.352Z,97287.75
2024-04-25T13:00:40.294Z,97361.22
2024-04-25T13:03:46.001Z,97357.63
2024-04-25T13:06:52.086Z,97349.50
2024-04-25T13:09:57.636Z,97355.28
2024-04-25T13:13:03.826Z,97356.00
2024-04-25T13:16:10.616Z,97361.78
2024-04-25T13:19:16.461Z,97358.44
2024-04-25T13:22:21.943Z,97358.03
2024-04-25T13:25:28.031Z,97361.69
2024-04-25T13:28:33.869Z,97355.69
2024-04-25T13:31:39.874Z,97346.91
2024-04-25T13:34:45.921Z,97284.91
2024-04-25T13:37:51.827Z,97355.31
2024-04-25T13:40:57.430Z,97359.91
2024-04-25T13:44:03.545Z,97350.22
2024-04-25T13:47:09.699Z,97353.13
2024-04-25T13:50:15.269Z,97351.91
2024-04-25T13:53:21.024Z,97358.91
2024-04-25T13:56:27.999Z,97358.19
2024-04-25T13:59:33.919Z,97358.56
2024-04-25T14:02:39.999Z,97365.47
2024-04-25T14:05:46.137Z,97376.59
2024-04-25T14:08:52.258Z,97366.91
2024-04-25T14:11:58.070Z,97369.81
2024-04-25T14:15:04.030Z,97367.88
2024-04-25T14:18:09.766Z,97377.03
2024-04-25T14:21:16.381Z,97377.50
2024-04-25T14:24:21.991Z,97378.94
2024-04-25T14:27:26.640Z,97383.06
2024-04-25T14:30:33.724Z,97377.03
2024-04-25T14:33:39.915Z,97386.50
2024-04-25T14:36:46.110Z,97380.00
2024-04-25T14:39:52.287Z,97391.59
2024-04-25T14:42:58.395Z,97389.44
2024-04-25T14:46:05.132Z,97397.28
2024-04-25T14:49:10.966Z,97380.72
2024-04-25T14:52:16.557Z,97380.25
2024-04-25T14:55:22.465Z,97388.47
2024-04-25T14:58:28.284Z,97386.06
2024-04-25T15:01:40.700Z,97393.34
2024-04-25T15:04:46.315Z,97394.56
2024-04-25T15:07:52.230Z,97386.84
2024-04-25T15:10:58.101Z,97400.50
2024-04-25T15:14:03.626Z,97394.09
2024-04-25T15:17:09.454Z,97401.22
2024-04-25T15:20:15.030Z,97384.94
2024-04-25T15:23:21.354Z,97400.13
2024-04-25T15:26:25.206Z,97400.94
2024-04-25T15:29:11.038Z,97396.22
2024-04-25T15:32:16.767Z,97399.13
2024-04-25T15:35:22.816Z,97384.66
2024-04-25T15:38:28.936Z,97404.69
2024-04-25T15:41:36.006Z,97398.78
2024-04-25T15:44:42.171Z,97400.13
2024-04-25T15:47:48.109Z,97411.97
2024-04-25T15:50:53.947Z,97418.00
2024-04-25T15:53:59.987Z,97413.44
2024-04-25T15:57:05.877Z,97406.66
2024-04-25T16:00:11.539Z,97413.44
2024-04-25T16:03:18.390Z,97417.81
2024-04-25T16:06:24.691Z,97417.44
2024-04-25T16:09:11.150Z,97411.75
2024-04-25T16:11:58.374Z,97410.34
2024-04-25T16:14:44.212Z,97414.31
2024-04-25T16:17:30.302Z,97402.97
2024-04-25T16:20:16.450Z,97404.28
2024-04-25T16:23:02.102Z,97415.25
2024-04-25T16:25:48.239Z,97412.50
2024-04-25T16:28:34.813Z,97353.34
2024-04-25T16:31:20.775Z,97406.94
2024-04-25T16:34:07.367Z,97409.44
2024-04-25T16:36:54.719Z,97411.72
2024-04-25T16:40:00.074Z,97418.97
2024-04-25T16:43:06.209Z,97423.56
2024-04-25T16:46:12.121Z,97438.75
2024-04-25T16:49:18.134Z,97426.81
2024-04-25T16:52:23.571Z,97431.28
2024-04-25T16:55:29.549Z,97428.00
2024-04-25T16:58:36.653Z,97442.72
2024-04-25T17:01:23.021Z,97440.75
2024-04-25T17:04:09.090Z,97437.47
2024-04-25T17:07:15.360Z,97434.19
2024-04-25T17:10:23.102Z,97446.34
2024-04-25T17:13:29.613Z,97449.00
2024-04-25T17:16:37.591Z,97443.19
2024-04-25T17:19:46.458Z,97456.00
2024-04-25T17:22:52.476Z,97442.81
2024-04-25T17:25:58.592Z,97453.81
2024-04-25T17:29:04.545Z,97463.44
2024-04-25T17:32:10.595Z,97475.00
2024-04-25T17:35:16.793Z,97471.84
2024-04-25T17:38:23.009Z,97476.53
2024-04-25T17:41:28.585Z,97477.16
2024-04-25T17:44:34.522Z,97483.16
2024-04-25T17:47:40.190Z,97475.63
2024-04-25T17:50:46.037Z,97489.81
2024-04-25T17:53:51.695Z,97496.16
2024-04-25T17:56:58.123Z,97499.25
2024-04-25T18:00:03.995Z,97499.56
2024-04-25T18:02:54.904Z,97499.16
2024-04-25T18:05:41.983Z,97498.03
2024-04-25T18:08:28.277Z,97515.13
2024-04-25T18:11:14.092Z,97512.69
2024-04-25T18:14:00.815Z,97514.13
2024-04-25T18:16:46.810Z,97509.09
2024-04-25T18:19:35.597Z,97515.50
2024-04-25T18:22:25.274Z,97486.19
2024-04-25T18:25:13.442Z,97525.28
2024-04-25T18:28:19.105Z,97522.97
2024-04-25T18:31:25.223Z,97524.59
2024-04-25T18:34:30.761Z,97543.56
2024-04-25T18:37:37.966Z,97541.09
2024-04-25T18:40:44.293Z,97513.22
2024-04-25T18:43:50.329Z,97557.84
2024-04-25T18:46:56.268Z,97554.06
2024-04-25T18:50:03.596Z,97567.75
2024-04-25T18:53:09.364Z,97550.44
2024-04-25T18:56:15.868Z,97552.63
2024-04-25T18:59:23.281Z,97551.31
2024-04-25T19:02:10.998Z,97560.03
2024-04-25T19:04:58.428Z,97564.53
2024-04-25T19:07:45.344Z,97544.28
2024-04-25T19:10:33.676Z,97563.66
2024-04-25T19:13:21.592Z,97554.31
2024-04-25T19:16:08.655Z,97561.00
2024-04-25T19:18:55.559Z,97549.88
2024-04-25T19:21:44.265Z,97540.97
2024-04-25T19:24:30.734Z,97499.84
2024-04-25T19:27:37.289Z,97563.66
2024-04-25T19:30:44.007Z,97565.84
2024-04-25T19:33:33.412Z,97559.50
2024-04-25T19:36:21.568Z,97577.13
2024-04-25T19:39:11.216Z,97556.47
2024-04-25T19:41:58.608Z,97572.03
2024-04-25T19:44:45.416Z,97570.84
2024-04-25T19:47:37.211Z,97565.03
2024-04-25T19:50:24.500Z,97584.72
2024-04-25T19:53:10.893Z,97562.91
2024-04-25T19:55:56.765Z,97577.63
2024-04-25T19:58:43.000Z,97565.97
2024-04-25T20:01:28.968Z,97569.72
2024-04-25T20:04:15.311Z,97561.69
2024-04-25T20:07:01.188Z,97567.22
2024-04-25T20:09:46.990Z,97561.72
2024-04-25T20:12:34.363Z,97569.78
2024-04-25T20:15:20.301Z,97559.44
2024-04-25T20:18:25.093Z,97566.72
2024-04-25T20:21:11.350Z,97534.88
2024-04-25T20:23:57.750Z,97566.56
2024-04-25T20:26:44.737Z,97561.03
2024-04-25T20:29:32.217Z,97569.34
2024-04-25T20:32:18.459Z,97571.69
2024-04-25T20:35:04.298Z,97568.38
2024-04-25T20:37:50.453Z,97565.16
2024-04-25T20:40:36.219Z,97573.03
2024-04-25T20:43:23.907Z,97569.56
2024-04-25T20:46:29.987Z,97565.03
2024-04-25T20:49:35.757Z,97572.59
2024-04-25T20:52:41.736Z,97557.56
2024-04-25T20:55:47.947Z,97575.00
2024-04-25T20:58:54.029Z,97582.53
2024-04-25T21:02:00.119Z,97585.28
2024-04-25T21:05:06.087Z,97570.25
2024-04-25T21:08:11.916Z,97574.00
2024-04-25T21:11:19.065Z,97575.88
2024-04-25T21:14:25.739Z,97567.56
2024-04-25T21:17:37.896Z,97578.28
2024-04-25T21:20:43.978Z,97598.50
2024-04-25T21:23:49.711Z,97593.81
2024-04-25T21:26:55.733Z,97599.44
2024-04-25T21:30:01.676Z,97597.66
2024-04-25T21:33:08.015Z,97602.88
2024-04-25T21:36:13.960Z,97585.84
2024-04-25T21:39:20.104Z,97604.00
2024-04-25T21:42:26.825Z,97546.44
2024-04-25T21:45:32.447Z,97592.44
2024-04-25T21:48:39.827Z,97588.19
2024-04-25T21:51:45.761Z,97589.97
2024-04-25T21:54:51.484Z,97600.22
2024-04-25T21:58:01.114Z,97593.00
2024-04-25T22:01:09.106Z,97599.97
2024-04-25T22:04:15.023Z,97593.31
2024-04-25T22:07:20.340Z,97603.94
2024-04-25T22:10:26.335Z,97600.38
2024-04-25T22:13:32.315Z,97590.66
2024-04-25T22:16:38.139Z,97612.84
2024-04-25T22:19:44.136Z,97608.13
2024-04-25T22:22:50.252Z,97609.28
2024-04-25T22:25:55.945Z,97608.13
2024-04-25T22:29:02.914Z,97614.31
2024-04-25T22:32:08.357Z,97619.34
2024-04-25T22:35:14.509Z,97608.16
2024-04-25T22:38:20.254Z,97616.09
2024-04-25T22:41:08.240Z,97620.41
2024-04-25T22:43:53.997Z,97617.72
2024-04-25T22:46:40.330Z,97629.38
2024-04-25T22:49:26.380Z,97624.50
2024-04-25T22:52:12.262Z,97621.50
2024-04-25T22:54:58.448Z,97619.06
2024-04-25T22:57:44.587Z,97635.22
2024-04-25T23:00:30.624Z,97649.31
2024-04-25T23:03:16.462Z,97639.44
2024-04-25T23:06:02.596Z,97643.63
2024-04-25T23:08:49.390Z,97645.66
2024-04-25T23:11:35.461Z,97643.50
2024-04-25T23:14:21.407Z,97649.41
2024-04-25T23:17:08.877Z,97642.19
2024-04-25T23:19:55.228Z,97647.91
2024-04-25T23:22:40.900Z,97645.13
2024-04-25T23:25:47.184Z,97654.69
2024-04-25T23:28:53.096Z,97657.56
2024-04-25T23:31:58.842Z,97651.16
2024-04-25T23:35:04.749Z,97642.91
2024-04-25T23:38:10.853Z,97653.66
2024-04-25T23:41:16.969Z,97647.34
2024-04-25T23:44:22.641Z,97653.84
2024-04-25T23:47:28.585Z,97659.00
2024-04-25T23:50:34.795Z,97653.19
2024-04-25T23:53:41.022Z,97650.97
2024-04-25T23:56:26.856Z,97648.25
2024-04-25T23:59:12.885Z,97650.66
